Time;durP1;ratioP1;P1;durP2;ratioP2;P2;SDS_P1;SDS_P2;PMS_P1;PMS_P2;Temp;Humidity;BMP_temperature;BMP_pressure;BME280_temperature;BME280_humidity;BME280_pressure;Samples;Min_cycle;Max_cycle;Signal;HPM_P1;HPM_P2
2023/05/17 00:01:14;;;;;;;3.07;1.63;;;13.80;84.50;;;;;;4910272;29;20472;-80
2023/05/17 00:04:06;;;;;;;3.53;1.60;;;13.90;84.40;;;;;;4902284;29;20478;-80
2023/05/17 00:07:21;;;;;;;1.90;1.60;;;13.80;85.10;;;;;;4952929;28;20453;-80
2023/05/17 00:10:34;;;;;;;3.03;1.67;;;13.70;85.80;;;;;;4959517;28;20448;-80
2023/05/17 00:13:59;;;;;;;2.33;1.60;;;13.50;86.60;;;;;;4969458;28;20598;-81
2023/05/17 00:20:56;;;;;;;2.77;1.43;;;13.40;87.80;;;;;;4936538;28;20467;-82
2023/05/17 00:27:52;;;;;;;1.90;1.50;;;13.30;88.80;;;;;;4931958;28;20440;-81
2023/05/17 00:31:15;;;;;;;4.00;1.50;;;13.30;89.60;;;;;;4832329;29;20463;-81
2023/05/17 00:38:25;;;;;;;2.90;1.30;;;13.20;90.20;;;;;;4829550;29;20474;-80
2023/05/17 00:41:26;;;;;;;1.47;1.37;;;13.20;90.50;;;;;;4850870;29;21016;-81
2023/05/17 00:44:17;;;;;;;2.53;1.63;;;13.10;90.60;;;;;;4868242;29;20490;-79
2023/05/17 00:47:46;;;;;;;;;;;;;;;;;;;;;
2023/05/17 01:34:20;;;;;;;5.33;1.60;;;12.60;93.70;;;;;;4855794;29;20490;-81
2023/05/17 01:53:25;;;;;;;;;;;;;;;;;;;;;
2023/05/17 01:56:46;;;;;;;3.23;1.57;;;12.60;93.90;;;;;;4903354;29;20451;-80
2023/05/17 02:07:50;;;;;;;3.90;2.00;;;12.50;94.10;;;;;;4803481;29;20519;-80
2023/05/17 02:15:10;;;;;;;4.23;2.13;;;12.40;94.30;;;;;;4857316;29;20488;-80
2023/05/17 02:18:36;;;;;;;;;;;;;;;;;;;;;
2023/05/17 02:21:47;;;;;;;2.07;1.87;;;12.30;94.60;;;;;;4782171;29;20485;-80
2023/05/17 02:25:00;;;;;;;5.50;2.17;;;12.30;94.70;;;;;;4772154;29;20503;-83
2023/05/17 02:32:18;;;;;;;3.47;2.13;;;12.20;95.00;;;;;;4758239;30;20973;-81
2023/05/17 02:42:58;;;;;;;2.60;2.37;;;12.10;95.80;;;;;;4759700;29;20482;-81
2023/05/17 02:46:15;;;;;;;3.63;2.33;;;12.10;96.00;;;;;;4773729;29;20485;-80
2023/05/17 02:57:16;;;;;;;;;;;;;;;;;;;;;
2023/05/17 03:00:55;;;;;;;;;;;;;;;;;;;;;
2023/05/17 03:08:06;;;;;;;6.10;2.30;;;11.90;97.00;;;;;;4938209;28;20522;-79
2023/05/17 03:11:28;;;;;;;4.03;2.67;;;11.80;97.20;;;;;;4959250;28;20517;-80
2023/05/17 03:18:40;;;;;;;2.77;2.20;;;11.80;97.70;;;;;;4951976;28;21141;-80
2023/05/17 03:33:14;;;;;;;5.70;2.63;;;11.80;98.50;;;;;;4922312;29;20491;-80
2023/05/17 03:36:42;;;;;;;7.53;3.47;;;11.80;98.60;;;;;;4914098;29;20452;-79
2023/05/17 03:39:52;;;;;;;3.90;3.37;;;11.80;98.70;;;;;;4892057;29;20469;-80
2023/05/17 03:43:16;;;;;;;4.10;2.60;;;11.80;98.70;;;;;;4887765;28;20543;-80
2023/05/17 03:46:13;;;;;;;5.43;2.67;;;11.80;98.80;;;;;;4897399;29;20735;-80
2023/05/17 03:49:26;;;;;;;;;;;;;;;;;;;;;
2023/05/17 03:52:40;;;;;;;5.27;3.00;;;11.70;99.00;;;;;;4925784;29;20499;-80
2023/05/17 03:56:00;;;;;;;3.23;2.90;;;11.70;99.10;;;;;;4944547;28;20831;-79
2023/05/17 04:02:54;;;;;;;6.93;2.80;;;11.70;99.10;;;;;;4958934;28;20486;-80
2023/05/17 04:10:23;;;;;;;3.23;2.83;;;11.80;99.20;;;;;;4917448;29;21302;-80
2023/05/17 04:13:38;;;;;;;7.27;3.73;;;11.70;99.30;;;;;;4842240;29;20557;-80
2023/05/17 04:17:31;;;;;;;;;;;;;;;;;;;;;
2023/05/17 04:24:28;;;;;;;;;;;;;;;;;;;;;
2023/05/17 04:28:33;;;;;;;6.47;3.40;;;11.70;99.60;;;;;;4905262;29;20462;-79
2023/05/17 04:39:14;;;;;;;9.80;4.90;;;12.00;99.50;;;;;;4899627;29;20468;-82
2023/05/17 04:42:05;;;;;;;6.90;3.90;;;12.00;99.40;;;;;;4948609;28;20466;-80
2023/05/17 04:45:36;;;;;;;5.90;3.70;;;11.90;99.40;;;;;;4967204;28;20497;-79
2023/05/17 05:00:25;;;;;;;8.50;4.77;;;11.90;99.90;;;;;;4871419;29;20450;-81
2023/05/17 05:04:05;;;;;;;;;;;;;;;;;;;;;
2023/05/17 05:07:58;;;;;;;8.13;4.47;;;11.90;99.90;;;;;;4864857;29;20542;-80
2023/05/17 05:11:05;;;;;;;8.53;4.80;;;12.00;99.90;;;;;;4864656;29;20483;-80
2023/05/17 05:13:57;;;;;;;9.80;4.80;;;12.10;99.90;;;;;;4857767;29;20487;-80
2023/05/17 05:16:49;;;;;;;7.57;4.40;;;12.10;99.90;;;;;;4889365;29;20528;-81
2023/05/17 05:19:45;;;;;;;7.20;4.97;;;12.20;99.80;;;;;;4891085;29;20481;-79
2023/05/17 05:23:03;;;;;;;7.40;4.80;;;12.20;99.80;;;;;;4905016;29;20499;-81
2023/05/17 05:25:45;;;;;;;8.30;5.47;;;12.20;99.70;;;;;;4881702;29;20483;-81
2023/05/17 05:29:10;;;;;;;9.70;4.53;;;12.30;99.70;;;;;;4921438;28;20458;-82
2023/05/17 05:32:40;;;;;;;10.40;4.60;;;12.30;99.70;;;;;;4962122;28;20470;-81
2023/05/17 05:38:53;;;;;;;10.53;5.47;;;12.30;99.50;;;;;;4977101;28;20525;-80
2023/05/17 05:42:29;;;;;;;;;;;;;;;;;;;;;
2023/05/17 05:46:06;;;;;;;;;;;;;;;;;;;;;
2023/05/17 05:48:42;;;;;;;9.17;4.93;;;12.30;99.70;;;;;;4977449;28;20498;-79
2023/05/17 05:52:05;;;;;;;6.37;5.63;;;12.20;99.70;;;;;;4965737;28;20506;-80
2023/05/17 05:54:55;;;;;;;9.60;5.40;;;12.30;99.90;;;;;;4912488;29;20473;-79
2023/05/17 05:57:56;;;;;;;9.80;5.50;;;12.40;99.90;;;;;;4912870;28;20570;-81
2023/05/17 06:01:18;;;;;;;9.60;5.63;;;12.30;99.90;;;;;;4906107;29;20467;-79
2023/05/17 06:05:04;;;;;;;;;;;;;;;;;;;;;
2023/05/17 06:08:15;;;;;;;13.43;7.67;;;12.20;99.90;;;;;;4980911;28;20481;-80
2023/05/17 06:11:32;;;;;;;;;;;;;;;;;;;;;
2023/05/17 06:19:08;;;;;;;;;;;;;;;;;;;;;
2023/05/17 06:26:10;;;;;;;15.67;7.43;;;12.70;99.90;;;;;;4985013;28;20490;-78
2023/05/17 06:29:00;;;;;;;9.70;7.03;;;12.80;99.70;;;;;;4984401;28;20553;-80
2023/05/17 06:36:29;;;;;;;15.70;8.37;;;13.20;99.10;;;;;;4928519;28;20472;-80
2023/05/17 06:39:42;;;;;;;16.13;9.33;;;14.00;96.50;;;;;;4980189;28;20446;-81
2023/05/17 06:46:38;;;;;;;10.97;7.50;;;14.50;94.70;;;;;;4914726;29;20521;-81
2023/05/17 06:54:03;;;;;;;;;;;;;;;;;;;;;
2023/05/17 06:57:08;;;;;;;10.20;4.50;;;14.60;92.10;;;;;;4953634;28;21283;-80
2023/05/17 07:00:32;;;;;;;10.83;5.27;;;14.60;89.10;;;;;;4975759;28;20907;-80
2023/05/17 07:07:33;;;;;;;8.73;5.30;;;14.40;89.20;;;;;;4826998;29;20520;-80
2023/05/17 07:11:19;;;;;;;8.60;4.30;;;14.80;88.10;;;;;;4819621;29;20529;-79
2023/05/17 07:14:28;;;;;;;6.13;3.83;;;15.10;85.70;;;;;;4839023;29;21338;-81
2023/05/17 07:18:23;;;;;;;6.73;4.10;;;14.90;84.80;;;;;;4838884;29;20986;-80
2023/05/17 07:22:14;;;;;;;;;;;;;;;;;;;;;
2023/05/17 07:25:47;;;;;;;;;;;;;;;;;;;;;
2023/05/17 07:29:10;;;;;;;7.07;4.37;;;15.10;83.20;;;;;;4817533;29;20473;-81
2023/05/17 07:40:17;;;;;;;6.30;3.37;;;15.40;78.30;;;;;;4845294;29;20481;-79
2023/05/17 07:43:17;;;;;;;8.10;3.70;;;15.20;80.10;;;;;;4805668;29;20506;-81
2023/05/17 07:46:35;;;;;;;10.47;4.10;;;15.40;79.90;;;;;;4817233;29;20492;-81
2023/05/17 07:49:38;;;;;;;5.80;3.10;;;15.40;79.90;;;;;;4820831;29;21108;-80
2023/05/17 07:59:38;;;;;;;6.03;2.90;;;15.60;79.10;;;;;;4759057;29;20460;-80
2023/05/17 08:07:04;;;;;;;7.00;2.20;;;15.80;78.00;;;;;;4708275;30;20869;-79
2023/05/17 08:10:16;;;;;;;;;;;;;;;;;;;;;
2023/05/17 08:16:50;;;;;;;2.30;1.33;;;17.10;67.40;;;;;;4728055;30;20477;-79
2023/05/17 08:23:42;;;;;;;2.40;1.80;;;18.30;57.20;;;;;;4786302;29;20492;-81
2023/05/17 08:26:45;;;;;;;;;;;;;;;;;;;;;
2023/05/17 08:30:01;;;;;;;;;;;;;;;;;;;;;
2023/05/17 08:34:02;;;;;;;3.30;1.60;;;17.70;58.60;;;;;;4821426;29;21246;-81
2023/05/17 08:37:05;;;;;;;4.70;1.37;;;19.50;53.60;;;;;;4851814;29;20514;-81
2023/05/17 08:40:00;;;;;;;1.57;1.30;;;19.80;52.90;;;;;;4879131;29;20462;-79
2023/05/17 08:46:52;;;;;;;3.93;1.20;;;20.30;48.80;;;;;;4896715;29;20548;-80
2023/05/17 08:57:45;;;;;;;;;;;;;;;;;;;;;
2023/05/17 09:01:11;;;;;;;3.03;1.40;;;23.50;44.20;;;;;;4897906;28;20463;-81
2023/05/17 09:04:44;;;;;;;2.10;1.47;;;24.30;41.10;;;;;;4932034;28;20512;-80
2023/05/17 09:07:31;;;;;;;5.50;1.60;;;22.00;42.50;;;;;;4966829;28;20544;-81
2023/05/17 09:10:58;;;;;;;3.03;1.50;;;22.50;43.60;;;;;;4969608;28;20709;-80
2023/05/17 09:18:08;;;;;;;1.67;1.30;;;24.20;42.10;;;;;;4982166;28;20539;-81
2023/05/17 09:21:31;;;;;;;3.10;2.13;;;26.80;37.30;;;;;;4950740;28;20455;-80
2023/05/17 09:24:38;;;;;;;5.90;2.90;;;26.70;36.30;;;;;;4960022;28;22615;-81
2023/05/17 09:28:11;;;;;;;2.67;1.50;;;25.90;35.70;;;;;;4922147;28;20588;-79
2023/05/17 09:31:07;;;;;;;3.67;1.60;;;25.10;35.70;;;;;;4946282;28;20542;-81
2023/05/17 09:34:26;;;;;;;5.10;1.30;;;27.20;33.30;;;;;;4979260;28;20494;-80
2023/05/17 09:37:48;;;;;;;;;;;;;;;;;;;;;
2023/05/17 09:40:56;;;;;;;3.93;1.60;;;26.90;32.80;;;;;;4862098;29;20490;-81
2023/05/17 09:48:01;;;;;;;2.30;1.30;;;27.50;31.70;;;;;;4938504;28;20451;-81
2023/05/17 09:55:10;;;;;;;2.47;1.53;;;25.10;34.30;;;;;;4990607;28;20466;-82
2023/05/17 10:06:20;;;;;;;1.50;1.27;;;22.50;38.70;;;;;;4984756;28;20563;-81
2023/05/17 10:09:01;;;;;;;5.70;1.27;;;23.90;37.30;;;;;;4870647;29;20460;-80
2023/05/17 10:12:06;;;;;;;2.00;1.23;;;24.30;35.80;;;;;;4888097;29;21049;-79
2023/05/17 10:15:24;;;;;;;2.90;1.60;;;23.70;35.80;;;;;;4889321;29;20462;-80
2023/05/17 10:18:28;;;;;;;1.90;1.10;;;23.10;36.70;;;;;;4892385;29;20464;-80
2023/05/17 10:25:06;;;;;;;2.47;1.40;;;25.10;33.70;;;;;;4906097;29;20498;-80
2023/05/17 10:27:43;;;;;;;5.13;1.30;;;25.70;33.10;;;;;;4895593;29;20600;-80
2023/05/17 10:31:13;;;;;;;2.00;1.40;;;25.80;32.90;;;;;;4884659;29;20469;-81
2023/05/17 10:34:16;;;;;;;3.10;1.37;;;25.30;33.00;;;;;;4903448;29;20493;-80
2023/05/17 10:37:22;;;;;;;1.77;1.37;;;24.00;34.90;;;;;;4899375;29;21060;-81
2023/05/17 10:40:29;;;;;;;4.10;2.07;;;22.20;37.40;;;;;;4901004;29;20582;-79
2023/05/17 10:47:47;;;;;;;1.97;1.47;;;21.50;36.90;;;;;;4968403;28;20494;-80
2023/05/17 10:51:03;;;;;;;1.57;1.20;;;22.00;37.00;;;;;;4962976;28;20525;-78
2023/05/17 10:54:56;;;;;;;3.30;1.77;;;22.70;35.90;;;;;;4900989;29;20549;-81
2023/05/17 10:58:23;;;;;;;5.33;1.90;;;22.60;36.50;;;;;;4913984;29;20477;-81
2023/05/17 11:02:07;;;;;;;5.37;2.20;;;22.40;38.00;;;;;;4911882;29;20678;-80
2023/05/17 11:05:06;;;;;;;;;;;;;;;;;;;;;
2023/05/17 11:08:25;;;;;;;3.53;1.50;;;20.90;40.40;;;;;;4867019;29;21068;-82
2023/05/17 11:11:59;;;;;;;2.53;1.23;;;20.20;41.70;;;;;;4897425;29;21002;-80
2023/05/17 11:15:17;;;;;;;;;;;;;;;;;;;;;
2023/05/17 11:18:44;;;;;;;2.13;1.20;;;21.00;41.30;;;;;;4920127;28;20539;-82
2023/05/17 11:22:00;;;;;;;1.80;1.30;;;21.60;39.20;;;;;;4935673;28;20450;-82
2023/05/17 11:28:25;;;;;;;2.70;1.37;;;22.80;36.80;;;;;;4906372;29;20461;-83
2023/05/17 11:31:05;;;;;;;4.23;1.60;;;23.40;37.10;;;;;;4962193;28;20444;-85
2023/05/17 11:33:45;;;;;;;3.87;2.13;;;23.20;37.00;;;;;;4987508;28;20475;-84
2023/05/17 11:36:22;;;;;;;3.10;1.67;;;22.60;37.60;;;;;;4987874;28;20467;-83
2023/05/17 11:39:08;;;;;;;3.37;1.70;;;22.30;38.30;;;;;;5003462;28;20466;-83
2023/05/17 11:41:40;;;;;;;3.60;1.60;;;23.00;38.40;;;;;;4999997;28;20451;-82
2023/05/17 11:44:08;;;;;;;2.70;1.53;;;23.00;37.10;;;;;;5000382;28;20503;-84
2023/05/17 11:46:37;;;;;;;3.70;1.43;;;22.90;36.40;;;;;;4985335;28;20537;-83
2023/05/17 11:49:08;;;;;;;2.83;1.53;;;22.90;36.50;;;;;;5000266;28;20462;-84
2023/05/17 11:51:35;;;;;;;5.60;2.13;;;22.90;37.20;;;;;;4994512;28;21214;-83
2023/05/17 11:54:03;;;;;;;2.73;1.63;;;22.50;38.20;;;;;;4968941;28;21093;-83
2023/05/17 11:56:35;;;;;;;3.70;1.87;;;22.30;38.00;;;;;;4965834;28;20491;-84
2023/05/17 11:59:08;;;;;;;2.77;2.03;;;22.30;37.90;;;;;;4982261;28;20471;-82
2023/05/17 12:01:49;;;;;;;7.03;1.90;;;23.50;37.30;;;;;;4965960;28;20462;-84
2023/05/17 12:04:24;;;;;;;3.97;1.57;;;23.60;37.50;;;;;;4977620;28;20486;-82
2023/05/17 12:06:54;;;;;;;3.90;2.40;;;23.70;36.60;;;;;;4960580;28;20474;-82
2023/05/17 12:09:23;;;;;;;3.97;1.73;;;22.70;37.60;;;;;;4983227;28;20454;-82
2023/05/17 12:11:49;;;;;;;3.20;1.63;;;22.40;38.30;;;;;;4983953;28;20460;-82
2023/05/17 12:14:16;;;;;;;2.13;1.50;;;22.20;39.30;;;;;;4981335;28;20477;-83
2023/05/17 12:16:46;;;;;;;7.23;2.20;;;22.70;38.80;;;;;;4978588;28;20866;-81
2023/05/17 12:19:21;;;;;;;3.17;1.33;;;23.00;36.60;;;;;;4972813;28;20473;-81
2023/05/17 12:21:48;;;;;;;2.73;1.57;;;23.20;36.60;;;;;;4977190;28;20477;-81
2023/05/17 12:24:15;;;;;;;3.37;2.00;;;23.00;36.20;;;;;;4980136;28;20486;-81
2023/05/17 12:26:46;;;;;;;5.30;1.80;;;22.90;36.90;;;;;;4975168;28;20556;-82
2023/05/17 12:29:14;;;;;;;3.57;1.67;;;22.50;36.70;;;;;;4959010;28;21044;-83
2023/05/17 12:31:48;;;;;;;4.53;2.27;;;22.80;36.70;;;;;;4977804;28;20815;-82
2023/05/17 12:34:16;;;;;;;6.63;2.60;;;23.40;37.50;;;;;;4983115;28;20506;-82
2023/05/17 12:36:44;;;;;;;5.20;2.77;;;22.70;38.00;;;;;;4965180;28;20535;-82
2023/05/17 12:39:12;;;;;;;3.40;2.20;;;22.30;38.40;;;;;;4988781;28;20458;-82
2023/05/17 12:41:40;;;;;;;5.03;1.60;;;22.40;38.50;;;;;;4973171;28;20542;-81
2023/05/17 12:44:08;;;;;;;5.00;1.60;;;22.30;38.30;;;;;;4979714;28;20478;-81
2023/05/17 12:46:37;;;;;;;3.80;1.47;;;22.70;37.30;;;;;;4975505;28;20653;-81
2023/05/17 12:49:07;;;;;;;4.03;2.10;;;22.20;37.00;;;;;;4981634;28;20470;-82
2023/05/17 12:51:42;;;;;;;2.77;2.10;;;22.30;36.90;;;;;;4980611;28;20465;-83
2023/05/17 12:54:09;;;;;;;3.70;1.97;;;22.70;36.70;;;;;;4981457;28;20459;-80
2023/05/17 12:56:36;;;;;;;4.20;2.00;;;22.70;37.30;;;;;;4979301;28;20470;-81
2023/05/17 12:59:24;;;;;;;4.40;2.00;;;22.90;37.30;;;;;;4980215;28;20473;-83
2023/05/17 13:01:54;;;;;;;2.40;1.40;;;22.30;37.90;;;;;;4980308;28;20480;-80
2023/05/17 13:04:31;;;;;;;3.13;1.77;;;21.80;38.10;;;;;;4980681;28;20472;-82
2023/05/17 13:07:00;;;;;;;5.27;2.10;;;21.80;38.50;;;;;;4961944;28;20844;-81
2023/05/17 13:09:32;;;;;;;2.20;2.00;;;21.90;38.40;;;;;;4963117;28;20538;-82
2023/05/17 13:12:05;;;;;;;5.17;2.17;;;21.70;38.40;;;;;;4980045;28;20481;-80
2023/05/17 13:14:35;;;;;;;3.17;2.30;;;21.50;38.90;;;;;;4977732;28;20479;-81
2023/05/17 13:17:08;;;;;;;14.17;9.33;;;21.50;38.80;;;;;;4981074;28;20553;-81
2023/05/17 13:19:35;;;;;;;8.23;3.40;;;21.80;38.30;;;;;;4966300;28;21033;-82
2023/05/17 13:22:05;;;;;;;7.90;4.00;;;21.80;38.70;;;;;;4962587;28;20538;-82
2023/05/17 13:24:37;;;;;;;6.73;2.47;;;21.50;38.80;;;;;;4968263;28;20530;-80
2023/05/17 13:27:05;;;;;;;2.10;1.53;;;21.40;38.60;;;;;;4965159;28;20491;-82
2023/05/17 13:29:35;;;;;;;2.60;1.73;;;22.30;37.10;;;;;;4962862;28;20873;-82
2023/05/17 13:32:07;;;;;;;4.83;2.07;;;22.60;36.60;;;;;;4961416;28;20884;-82
2023/05/17 13:34:35;;;;;;;2.53;2.10;;;22.20;36.90;;;;;;4977738;28;20482;-81
2023/05/17 13:37:04;;;;;;;3.50;2.17;;;22.10;37.40;;;;;;4967088;28;20461;-80
2023/05/17 13:39:35;;;;;;;5.63;3.20;;;21.50;37.90;;;;;;4978476;28;20899;-81
2023/05/17 13:42:02;;;;;;;3.70;2.37;;;21.10;38.80;;;;;;4953674;28;20513;-82
2023/05/17 13:44:29;;;;;;;4.10;2.10;;;21.50;38.80;;;;;;4959719;28;20506;-80
2023/05/17 13:46:56;;;;;;;2.87;2.03;;;21.40;39.00;;;;;;4960148;28;20559;-82
2023/05/17 13:49:23;;;;;;;2.67;2.00;;;21.50;38.90;;;;;;4956383;28;20637;-81
2023/05/17 13:51:50;;;;;;;3.47;2.00;;;21.20;38.50;;;;;;4958547;28;20452;-82
2023/05/17 13:54:19;;;;;;;2.90;2.23;;;21.20;38.80;;;;;;4965961;28;20983;-81
2023/05/17 13:56:49;;;;;;;4.10;2.70;;;21.30;38.70;;;;;;4947562;28;20463;-81
2023/05/17 13:59:16;;;;;;;3.70;2.20;;;21.80;38.00;;;;;;4959887;28;20813;-81
2023/05/17 14:01:43;;;;;;;3.00;2.70;;;21.50;38.30;;;;;;4959492;28;20456;-82
2023/05/17 14:04:11;;;;;;;2.60;2.40;;;21.40;38.70;;;;;;4955233;28;20484;-80
2023/05/17 14:06:38;;;;;;;5.50;2.83;;;21.60;39.30;;;;;;4954903;28;20580;-80
2023/05/17 14:09:05;;;;;;;4.07;2.00;;;22.10;38.40;;;;;;4953086;28;20533;-82
2023/05/17 14:11:33;;;;;;;2.10;1.77;;;22.00;38.20;;;;;;4958534;28;20467;-82
2023/05/17 14:14:00;;;;;;;2.37;1.80;;;22.20;38.30;;;;;;4958879;28;21083;-81
2023/05/17 14:16:30;;;;;;;3.13;1.77;;;21.70;38.30;;;;;;4960522;28;20490;-84
2023/05/17 14:18:57;;;;;;;2.10;1.90;;;21.40;39.00;;;;;;4966734;28;21168;-80
2023/05/17 14:21:27;;;;;;;3.20;1.63;;;21.30;39.40;;;;;;4960782;28;20509;-80
2023/05/17 14:23:55;;;;;;;2.83;2.10;;;21.20;39.80;;;;;;4974469;28;20494;-81
2023/05/17 14:26:22;;;;;;;4.40;1.90;;;21.20;40.40;;;;;;4961763;28;20510;-80
2023/05/17 14:28:50;;;;;;;3.23;1.70;;;21.30;40.20;;;;;;4964000;28;20467;-81
2023/05/17 14:31:17;;;;;;;7.70;2.30;;;21.00;39.90;;;;;;4965944;28;20547;-81
2023/05/17 14:33:45;;;;;;;3.20;2.20;;;20.80;40.20;;;;;;4963064;28;20529;-82
2023/05/17 14:36:12;;;;;;;2.07;1.87;;;20.60;39.50;;;;;;4959124;28;21029;-81
2023/05/17 14:38:40;;;;;;;5.57;2.40;;;20.70;39.30;;;;;;4959526;28;21144;-81
2023/05/17 14:41:07;;;;;;;5.03;2.70;;;20.60;39.40;;;;;;4948934;28;20472;-81
2023/05/17 14:43:34;;;;;;;2.40;2.03;;;20.80;39.40;;;;;;4940740;28;20490;-81
2023/05/17 14:46:03;;;;;;;4.43;1.33;;;20.90;38.90;;;;;;4959761;28;21217;-82
2023/05/17 14:48:35;;;;;;;3.33;1.43;;;20.90;38.50;;;;;;4975847;28;20561;-80
2023/05/17 14:51:02;;;;;;;3.83;1.77;;;20.70;38.30;;;;;;4938666;28;22019;-81
2023/05/17 14:53:30;;;;;;;2.23;1.57;;;20.30;39.20;;;;;;4936167;28;20487;-81
2023/05/17 14:55:58;;;;;;;2.60;1.97;;;20.10;39.50;;;;;;4959121;28;20462;-80
2023/05/17 14:58:25;;;;;;;3.47;1.40;;;20.20;39.20;;;;;;4958842;28;21056;-82
2023/05/17 15:00:57;;;;;;;2.33;2.07;;;20.20;39.30;;;;;;4972687;28;20471;-79
2023/05/17 15:03:28;;;;;;;6.53;2.10;;;20.20;39.30;;;;;;4963954;28;20482;-79
2023/05/17 15:05:57;;;;;;;4.13;1.80;;;20.20;39.00;;;;;;4964642;28;20458;-82
2023/05/17 15:08:26;;;;;;;1.93;1.50;;;20.20;39.50;;;;;;4969457;28;20966;-82
2023/05/17 15:10:54;;;;;;;5.53;1.73;;;20.20;39.30;;;;;;4959318;28;20476;-84
2023/05/17 15:13:22;;;;;;;2.43;1.80;;;20.30;39.70;;;;;;4956334;28;20510;-81
2023/05/17 15:15:51;;;;;;;2.80;1.70;;;20.40;38.30;;;;;;4960185;28;20531;-81
2023/05/17 15:18:19;;;;;;;1.77;1.43;;;20.70;37.70;;;;;;4968437;28;20801;-80
2023/05/17 15:20:46;;;;;;;5.47;1.90;;;20.50;37.70;;;;;;4897215;28;21631;-81
2023/05/17 15:27:21;;;;;;;;;;;;;;;;;;;;;
2023/05/17 15:34:25;;;;;;;3.63;1.50;;;20.20;38.80;;;;;;4905838;29;20482;-80
2023/05/17 15:44:47;;;;;;;3.87;1.60;;;20.10;39.80;;;;;;4978767;28;20494;-82
2023/05/17 15:48:29;;;;;;;;;;;;;;;;;;;;;
2023/05/17 15:55:52;;;;;;;;;;;;;;;;;;;;;
2023/05/17 15:58:52;;;;;;;3.20;1.67;;;20.20;39.50;;;;;;4924553;29;20448;-80
2023/05/17 16:01:45;;;;;;;3.90;1.97;;;20.30;39.50;;;;;;4922598;29;20461;-80
2023/05/17 16:04:44;;;;;;;5.30;2.20;;;20.10;39.50;;;;;;4911299;29;20500;-81
2023/05/17 16:07:31;;;;;;;2.00;1.80;;;20.40;39.70;;;;;;4921545;29;21252;-81
2023/05/17 16:10:37;;;;;;;3.53;2.07;;;20.10;39.50;;;;;;4887487;29;20447;-80
2023/05/17 16:14:01;;;;;;;3.60;2.17;;;19.70;39.80;;;;;;4899746;29;20890;-81
2023/05/17 16:18:09;;;;;;;3.30;1.97;;;19.60;40.20;;;;;;4918420;29;21009;-80
2023/05/17 16:25:03;;;;;;;;;;;;;;;;;;;;;
2023/05/17 16:32:37;;;;;;;2.03;1.83;;;20.10;40.30;;;;;;4953542;28;20603;-82
2023/05/17 16:36:25;;;;;;;;;;;;;;;;;;;;;
2023/05/17 16:39:40;;;;;;;2.60;1.80;;;19.80;39.60;;;;;;4899679;29;20537;-81
2023/05/17 16:42:33;;;;;;;4.67;2.17;;;20.00;39.90;;;;;;4890000;29;20432;-80
2023/05/17 16:46:20;;;;;;;1.80;1.70;;;19.70;39.80;;;;;;4887351;29;20545;-81
2023/05/17 16:49:40;;;;;;;2.93;1.97;;;19.30;40.60;;;;;;4870342;29;20453;-80
2023/05/17 16:52:36;;;;;;;2.00;1.80;;;19.40;40.90;;;;;;4859726;29;20452;-80
2023/05/17 16:56:02;;;;;;;2.90;2.53;;;19.40;41.10;;;;;;4862220;29;20440;-80
2023/05/17 17:03:02;;;;;;;3.20;2.27;;;19.40;41.30;;;;;;4887843;29;20462;-81
2023/05/17 17:06:40;;;;;;;;;;;;;;;;;;;;;
2023/05/17 17:12:38;;;;;;;3.17;1.90;;;19.50;41.80;;;;;;4923801;28;20458;-81
2023/05/17 17:15:49;;;;;;;2.47;2.20;;;19.60;41.50;;;;;;4920150;28;20478;-83
2023/05/17 17:19:32;;;;;;;5.43;2.37;;;19.50;40.30;;;;;;4875015;29;20482;-79
2023/05/17 17:27:16;;;;;;;;;;;;;;;;;;;;;
2023/05/17 17:30:26;;;;;;;3.20;2.20;;;19.10;40.30;;;;;;4863294;29;20632;-79
2023/05/17 17:34:26;;;;;;;3.33;2.47;;;19.10;40.70;;;;;;4862812;29;20472;-81
2023/05/17 17:37:29;;;;;;;8.90;2.10;;;19.10;41.10;;;;;;4809671;29;20581;-79
2023/05/17 17:40:55;;;;;;;3.70;2.57;;;19.20;41.00;;;;;;4809742;29;20538;-80
2023/05/17 17:44:22;;;;;;;4.90;2.37;;;19.20;41.30;;;;;;4865156;29;20492;-80
2023/05/17 17:47:19;;;;;;;4.63;2.40;;;19.20;41.40;;;;;;4801999;29;20487;-80
2023/05/17 17:50:34;;;;;;;3.50;2.30;;;19.10;41.80;;;;;;4856574;29;20563;-80
2023/05/17 17:54:16;;;;;;;4.03;1.90;;;19.10;41.30;;;;;;4853018;29;20555;-79
2023/05/17 18:01:36;;;;;;;;;;;;;;;;;;;;;
2023/05/17 18:05:07;;;;;;;4.97;2.30;;;18.90;41.80;;;;;;4898840;29;20936;-81
2023/05/17 18:08:34;;;;;;;;;;;;;;;;;;;;;
2023/05/17 18:11:41;;;;;;;6.67;6.03;;;18.70;41.90;;;;;;4898525;29;21922;-79
2023/05/17 18:14:56;;;;;;;4.33;2.20;;;18.70;42.80;;;;;;4876900;29;20463;-80
2023/05/17 18:21:05;;;;;;;6.93;2.57;;;18.50;42.50;;;;;;4899575;29;20454;-81
2023/05/17 18:24:04;;;;;;;;;;;;;;;;;;;;;
2023/05/17 18:27:23;;;;;;;3.57;1.63;;;18.20;43.90;;;;;;4895814;29;20539;-78
2023/05/17 18:30:40;;;;;;;;;;;;;;;;;;;;;
2023/05/17 18:36:21;;;;;;;1.77;1.40;;;18.00;44.50;;;;;;5020941;28;20489;-82
2023/05/17 18:39:17;;;;;;;4.17;1.50;;;18.00;44.90;;;;;;5001650;28;20471;-80
2023/05/17 18:42:11;;;;;;;;;;;;;;;;;;;;;
2023/05/17 18:45:21;;;;;;;3.27;1.80;;;17.60;44.90;;;;;;5001394;28;20558;-80
2023/05/17 18:48:10;;;;;;;3.30;1.67;;;17.50;45.50;;;;;;4986041;28;20478;-80
2023/05/17 18:51:17;;;;;;;5.93;1.60;;;17.50;45.70;;;;;;4978676;28;20455;-80
2023/05/17 18:54:37;;;;;;;3.13;1.83;;;17.50;46.10;;;;;;4945769;28;20478;-79
2023/05/17 19:01:10;;;;;;;5.73;1.50;;;17.50;46.40;;;;;;5003295;28;20457;-82
2023/05/17 19:04:22;;;;;;;;;;;;;;;;;;;;;
2023/05/17 19:10:50;;;;;;;;;;;;;;;;;;;;;
2023/05/17 19:14:01;;;;;;;2.20;1.90;;;17.00;46.90;;;;;;5000687;28;20488;-80
2023/05/17 19:16:58;;;;;;;2.50;1.70;;;17.10;47.10;;;;;;4997163;28;20436;-79
2023/05/17 19:19:55;;;;;;;6.30;1.80;;;17.00;47.20;;;;;;4981605;28;20568;-81
2023/05/17 19:23:09;;;;;;;3.07;1.60;;;16.90;47.50;;;;;;4985324;28;20458;-80
2023/05/17 19:25:48;;;;;;;2.90;1.40;;;17.10;47.90;;;;;;4979619;28;20585;-79
2023/05/17 19:28:26;;;;;;;2.60;1.80;;;17.10;47.70;;;;;;4998934;28;20476;-79
2023/05/17 19:31:58;;;;;;;;;;;;;;;;;;;;;
2023/05/17 19:35:31;;;;;;;6.20;2.37;;;17.00;49.10;;;;;;4996059;28;22949;-79
2023/05/17 19:39:23;;;;;;;;;;;;;;;;;;;;;
2023/05/17 19:46:07;;;;;;;;;;;;;;;;;;;;;
2023/05/17 19:49:35;;;;;;;;;;;;;;;;;;;;;
2023/05/17 19:52:43;;;;;;;6.57;2.10;;;16.80;49.50;;;;;;4992020;28;20488;-80
2023/05/17 19:55:59;;;;;;;4.40;2.63;;;16.70;49.50;;;;;;4987592;28;20456;-81
2023/05/17 19:59:08;;;;;;;3.70;1.93;;;16.70;49.10;;;;;;4981545;28;20444;-81
2023/05/17 20:02:04;;;;;;;4.70;2.13;;;16.50;49.50;;;;;;4980073;28;20533;-81
2023/05/17 20:04:55;;;;;;;3.77;2.07;;;16.40;49.20;;;;;;5003267;28;20548;-81
2023/05/17 20:08:01;;;;;;;6.67;2.27;;;16.40;49.80;;;;;;5003712;28;20481;-80
2023/05/17 20:11:20;;;;;;;4.23;2.23;;;16.30;50.20;;;;;;4922678;28;20753;-82
2023/05/17 20:14:47;;;;;;;3.73;2.17;;;16.30;50.50;;;;;;4925729;28;20468;-79
2023/05/17 20:17:37;;;;;;;4.80;2.30;;;16.40;50.60;;;;;;4917761;28;20479;-80
2023/05/17 20:20:27;;;;;;;3.30;2.27;;;16.20;50.80;;;;;;4909312;28;20429;-82
2023/05/17 20:23:42;;;;;;;2.50;1.90;;;16.20;50.70;;;;;;4928060;28;20457;-82
2023/05/17 20:26:48;;;;;;;2.37;2.13;;;16.10;50.90;;;;;;4944208;28;20460;-83
2023/05/17 20:29:22;;;;;;;7.10;2.73;;;16.10;51.10;;;;;;4942219;28;20547;-83
2023/05/17 20:32:54;;;;;;;5.37;2.53;;;16.10;51.50;;;;;;4947166;28;20464;-82
2023/05/17 20:36:08;;;;;;;5.10;2.00;;;16.00;51.60;;;;;;4997041;28;20465;-81
2023/05/17 20:39:26;;;;;;;4.77;2.13;;;16.00;51.70;;;;;;5007447;28;21341;-81
2023/05/17 20:42:16;;;;;;;5.57;2.37;;;16.00;51.70;;;;;;5019257;28;20446;-83
2023/05/17 20:45:28;;;;;;;6.33;2.17;;;16.00;51.80;;;;;;5001842;28;20461;-82
2023/05/17 20:48:52;;;;;;;4.57;2.00;;;15.90;51.50;;;;;;4940864;28;21983;-83
2023/05/17 20:59:26;;;;;;;4.40;2.30;;;15.60;52.00;;;;;;4924476;28;20452;-82
2023/05/17 21:02:36;;;;;;;4.77;2.10;;;15.50;52.20;;;;;;4868952;29;20469;-84
2023/05/17 21:06:08;;;;;;;5.50;2.70;;;15.50;53.00;;;;;;4838336;29;20477;-84
2023/05/17 21:09:31;;;;;;;8.10;1.93;;;15.50;52.40;;;;;;4797620;29;20669;-83
2023/05/17 21:12:27;;;;;;;2.30;1.70;;;15.40;52.50;;;;;;4791675;29;20468;-83
2023/05/17 21:15:26;;;;;;;5.70;2.03;;;15.30;52.60;;;;;;4792046;29;20479;-84
2023/05/17 21:18:05;;;;;;;;;;;;;;;;;;;;;
2023/05/17 21:20:57;;;;;;;3.27;2.20;;;15.20;52.90;;;;;;4791625;29;20561;-84
2023/05/17 21:32:32;;;;;;;6.60;2.83;;;15.50;53.40;;;;;;4892928;28;20528;-82
2023/05/17 21:39:28;;;;;;;5.37;2.33;;;15.20;53.90;;;;;;4938219;28;20548;-82
2023/05/17 21:42:06;;;;;;;2.87;2.30;;;15.30;53.80;;;;;;4867222;29;20740;-83
2023/05/17 21:45:28;;;;;;;4.43;2.43;;;15.20;54.30;;;;;;4879711;29;20499;-82
2023/05/17 21:48:42;;;;;;;;;;;;;;;;;;;;;
2023/05/17 21:55:49;;;;;;;3.40;2.17;;;15.10;54.90;;;;;;4981141;28;20479;-81
2023/05/17 21:59:45;;;;;;;;;;;;;;;;;;;;;
2023/05/17 22:03:19;;;;;;;;;;;;;;;;;;;;;
2023/05/17 22:10:16;;;;;;;;;;;;;;;;;;;;;
2023/05/17 22:21:30;;;;;;;4.63;2.57;;;14.80;55.90;;;;;;4825035;29;20695;-82
2023/05/17 22:24:59;;;;;;;;;;;;;;;;;;;;;
2023/05/17 22:31:51;;;;;;;4.10;2.63;;;14.70;55.90;;;;;;4769344;29;20469;-80
2023/05/17 22:38:41;;;;;;;4.77;2.30;;;14.30;56.00;;;;;;4765575;29;20683;-83
2023/05/17 22:42:10;;;;;;;;;;;;;;;;;;;;;